sensor_id;sensor_type;location;lat;lon;timestamp;P1;durP1;ratioP1;P2;durP2;ratioP2
45358;SDS011;31096;49.292;8.710;2022-12-10T00:01:33;17.50;;;9.02;;
45358;SDS011;31096;49.292;8.710;2022-12-10T00:06:26;19.37;;;9.47;;
45358;SDS011;31096;49.292;8.710;2022-12-10T00:11:23;16.02;;;8.95;;
45358;SDS011;31096;49.292;8.710;2022-12-10T00:16:15;14.90;;;7.95;;
45358;SDS011;31096;49.292;8.710;2022-12-10T00:21:09;20.58;;;9.20;;
45358;SDS011;31096;49.292;8.710;2022-12-10T00:26:10;20.38;;;10.32;;
45358;SDS011;31096;49.292;8.710;2022-12-10T00:31:13;19.93;;;9.83;;
45358;SDS011;31096;49.292;8.710;2022-12-10T00:36:12;19.02;;;9.95;;
45358;SDS011;31096;49.292;8.710;2022-12-10T00:41:05;18.73;;;9.45;;
45358;SDS011;31096;49.292;8.710;2022-12-10T00:45:57;15.35;;;9.10;;
45358;SDS011;31096;49.292;8.710;2022-12-10T00:56:12;17.00;;;8.93;;
45358;SDS011;31096;49.292;8.710;2022-12-10T01:06:14;19.42;;;9.68;;
45358;SDS011;31096;49.292;8.710;2022-12-10T01:11:13;16.95;;;8.90;;
45358;SDS011;31096;49.292;8.710;2022-12-10T01:16:06;18.10;;;9.20;;
45358;SDS011;31096;49.292;8.710;2022-12-10T01:21:02;16.33;;;8.60;;
45358;SDS011;31096;49.292;8.710;2022-12-10T01:26:00;17.58;;;9.00;;
45358;SDS011;31096;49.292;8.710;2022-12-10T01:31:23;20.52;;;9.77;;
45358;SDS011;31096;49.292;8.710;2022-12-10T01:36:20;21.50;;;10.20;;
45358;SDS011;31096;49.292;8.710;2022-12-10T01:41:15;19.40;;;9.48;;
45358;SDS011;31096;49.292;8.710;2022-12-10T01:46:09;17.37;;;8.50;;
45358;SDS011;31096;49.292;8.710;2022-12-10T01:51:00;17.23;;;9.30;;
45358;SDS011;31096;49.292;8.710;2022-12-10T01:55:51;17.40;;;8.33;;
45358;SDS011;31096;49.292;8.710;2022-12-10T02:01:25;19.80;;;10.45;;
45358;SDS011;31096;49.292;8.710;2022-12-10T02:06:15;20.67;;;9.10;;
45358;SDS011;31096;49.292;8.710;2022-12-10T02:16:30;13.10;;;6.67;;
45358;SDS011;31096;49.292;8.710;2022-12-10T02:21:28;16.42;;;8.15;;
45358;SDS011;31096;49.292;8.710;2022-12-10T02:32:17;23.10;;;10.27;;
45358;SDS011;31096;49.292;8.710;2022-12-10T02:37:14;16.77;;;8.18;;
45358;SDS011;31096;49.292;8.710;2022-12-10T02:42:26;14.57;;;7.97;;
45358;SDS011;31096;49.292;8.710;2022-12-10T02:47:20;15.45;;;8.27;;
45358;SDS011;31096;49.292;8.710;2022-12-10T02:52:12;15.30;;;8.15;;
45358;SDS011;31096;49.292;8.710;2022-12-10T02:57:11;18.83;;;8.27;;
45358;SDS011;31096;49.292;8.710;2022-12-10T03:02:46;14.13;;;7.30;;
45358;SDS011;31096;49.292;8.710;2022-12-10T03:08:28;16.03;;;8.67;;
45358;SDS011;31096;49.292;8.710;2022-12-10T03:13:50;14.45;;;7.75;;
45358;SDS011;31096;49.292;8.710;2022-12-10T03:19:07;16.42;;;8.98;;
45358;SDS011;31096;49.292;8.710;2022-12-10T03:24:02;19.50;;;9.40;;
45358;SDS011;31096;49.292;8.710;2022-12-10T03:28:56;19.35;;;9.32;;
45358;SDS011;31096;49.292;8.710;2022-12-10T03:33:52;20.80;;;10.90;;
45358;SDS011;31096;49.292;8.710;2022-12-10T03:38:44;18.77;;;9.10;;
45358;SDS011;31096;49.292;8.710;2022-12-10T03:43:35;19.27;;;9.67;;
45358;SDS011;31096;49.292;8.710;2022-12-10T03:48:26;19.15;;;9.80;;
45358;SDS011;31096;49.292;8.710;2022-12-10T03:53:16;25.37;;;10.60;;
45358;SDS011;31096;49.292;8.710;2022-12-10T03:58:08;19.98;;;10.15;;
45358;SDS011;31096;49.292;8.710;2022-12-10T04:02:58;21.40;;;10.50;;
45358;SDS011;31096;49.292;8.710;2022-12-10T04:07:49;22.50;;;11.63;;
45358;SDS011;31096;49.292;8.710;2022-12-10T04:12:39;20.02;;;9.82;;
45358;SDS011;31096;49.292;8.710;2022-12-10T04:17:31;20.53;;;10.37;;
45358;SDS011;31096;49.292;8.710;2022-12-10T04:22:23;25.20;;;11.52;;
45358;SDS011;31096;49.292;8.710;2022-12-10T04:27:33;21.97;;;10.27;;
45358;SDS011;31096;49.292;8.710;2022-12-10T04:32:27;25.08;;;11.18;;
45358;SDS011;31096;49.292;8.710;2022-12-10T04:37:19;23.58;;;11.73;;
45358;SDS011;31096;49.292;8.710;2022-12-10T04:42:11;22.17;;;11.00;;
45358;SDS011;31096;49.292;8.710;2022-12-10T04:47:02;21.95;;;10.90;;
45358;SDS011;31096;49.292;8.710;2022-12-10T04:51:55;20.97;;;10.33;;
45358;SDS011;31096;49.292;8.710;2022-12-10T04:56:45;21.20;;;10.13;;
45358;SDS011;31096;49.292;8.710;2022-12-10T05:01:36;19.17;;;9.40;;
45358;SDS011;31096;49.292;8.710;2022-12-10T05:06:29;20.83;;;10.52;;
45358;SDS011;31096;49.292;8.710;2022-12-10T05:11:21;28.00;;;13.90;;
45358;SDS011;31096;49.292;8.710;2022-12-10T05:16:15;22.42;;;10.70;;
45358;SDS011;31096;49.292;8.710;2022-12-10T05:21:12;23.23;;;10.98;;
45358;SDS011;31096;49.292;8.710;2022-12-10T05:31:01;24.23;;;11.57;;
45358;SDS011;31096;49.292;8.710;2022-12-10T05:36:01;22.47;;;10.83;;
45358;SDS011;31096;49.292;8.710;2022-12-10T05:40:55;23.20;;;11.50;;
45358;SDS011;31096;49.292;8.710;2022-12-10T05:45:50;27.40;;;12.73;;
45358;SDS011;31096;49.292;8.710;2022-12-10T05:50:41;20.73;;;9.73;;
45358;SDS011;31096;49.292;8.710;2022-12-10T05:55:32;19.55;;;9.25;;
45358;SDS011;31096;49.292;8.710;2022-12-10T06:00:23;25.43;;;11.77;;
45358;SDS011;31096;49.292;8.710;2022-12-10T06:05:13;21.38;;;10.57;;
45358;SDS011;31096;49.292;8.710;2022-12-10T06:10:04;19.13;;;9.73;;
45358;SDS011;31096;49.292;8.710;2022-12-10T06:14:55;21.88;;;10.57;;
45358;SDS011;31096;49.292;8.710;2022-12-10T06:19:47;20.07;;;10.13;;
45358;SDS011;31096;49.292;8.710;2022-12-10T06:24:38;21.47;;;10.97;;
45358;SDS011;31096;49.292;8.710;2022-12-10T06:29:28;22.48;;;10.68;;
45358;SDS011;31096;49.292;8.710;2022-12-10T06:34:19;24.43;;;11.83;;
45358;SDS011;31096;49.292;8.710;2022-12-10T06:39:10;24.08;;;11.25;;
45358;SDS011;31096;49.292;8.710;2022-12-10T06:44:00;24.75;;;12.18;;
45358;SDS011;31096;49.292;8.710;2022-12-10T06:48:51;24.70;;;12.87;;
45358;SDS011;31096;49.292;8.710;2022-12-10T06:53:42;24.33;;;10.90;;
45358;SDS011;31096;49.292;8.710;2022-12-10T06:58:34;27.10;;;12.30;;
45358;SDS011;31096;49.292;8.710;2022-12-10T07:03:25;22.63;;;11.45;;
45358;SDS011;31096;49.292;8.710;2022-12-10T07:08:15;18.87;;;9.50;;
45358;SDS011;31096;49.292;8.710;2022-12-10T07:13:07;20.63;;;9.65;;
45358;SDS011;31096;49.292;8.710;2022-12-10T07:17:58;26.97;;;11.67;;
45358;SDS011;31096;49.292;8.710;2022-12-10T07:22:49;25.73;;;11.73;;
45358;SDS011;31096;49.292;8.710;2022-12-10T07:27:40;23.10;;;11.37;;
45358;SDS011;31096;49.292;8.710;2022-12-10T07:32:30;25.23;;;11.07;;
45358;SDS011;31096;49.292;8.710;2022-12-10T07:37:21;25.93;;;12.77;;
45358;SDS011;31096;49.292;8.710;2022-12-10T07:42:11;26.20;;;12.25;;
45358;SDS011;31096;49.292;8.710;2022-12-10T07:47:02;23.00;;;11.70;;
45358;SDS011;31096;49.292;8.710;2022-12-10T07:51:53;25.75;;;12.73;;
45358;SDS011;31096;49.292;8.710;2022-12-10T07:56:44;30.30;;;14.73;;
45358;SDS011;31096;49.292;8.710;2022-12-10T08:01:34;24.37;;;11.40;;
45358;SDS011;31096;49.292;8.710;2022-12-10T08:06:26;28.10;;;13.63;;
45358;SDS011;31096;49.292;8.710;2022-12-10T08:11:19;23.63;;;11.47;;
45358;SDS011;31096;49.292;8.710;2022-12-10T08:16:17;24.85;;;12.75;;
45358;SDS011;31096;49.292;8.710;2022-12-10T08:21:13;22.55;;;10.95;;
45358;SDS011;31096;49.292;8.710;2022-12-10T08:26:09;26.23;;;13.25;;
45358;SDS011;31096;49.292;8.710;2022-12-10T08:31:02;31.13;;;13.85;;
45358;SDS011;31096;49.292;8.710;2022-12-10T08:35:57;30.90;;;14.33;;
45358;SDS011;31096;49.292;8.710;2022-12-10T08:40:51;24.15;;;12.07;;
45358;SDS011;31096;49.292;8.710;2022-12-10T08:45:42;25.93;;;12.87;;
45358;SDS011;31096;49.292;8.710;2022-12-10T08:50:33;25.80;;;12.40;;
45358;SDS011;31096;49.292;8.710;2022-12-10T08:55:23;28.50;;;12.20;;
45358;SDS011;31096;49.292;8.710;2022-12-10T09:00:14;29.08;;;14.02;;
45358;SDS011;31096;49.292;8.710;2022-12-10T09:05:05;26.93;;;12.87;;
45358;SDS011;31096;49.292;8.710;2022-12-10T09:09:57;28.58;;;14.52;;
45358;SDS011;31096;49.292;8.710;2022-12-10T09:14:48;23.10;;;12.20;;
45358;SDS011;31096;49.292;8.710;2022-12-10T09:19:39;25.27;;;11.57;;
45358;SDS011;31096;49.292;8.710;2022-12-10T09:24:30;23.00;;;11.47;;
45358;SDS011;31096;49.292;8.710;2022-12-10T09:29:20;24.50;;;11.60;;
45358;SDS011;31096;49.292;8.710;2022-12-10T09:34:11;26.45;;;11.82;;
45358;SDS011;31096;49.292;8.710;2022-12-10T09:39:02;25.47;;;11.63;;
45358;SDS011;31096;49.292;8.710;2022-12-10T09:44:07;21.67;;;10.60;;
45358;SDS011;31096;49.292;8.710;2022-12-10T09:54:54;23.33;;;11.13;;
45358;SDS011;31096;49.292;8.710;2022-12-10T09:59:48;25.98;;;11.98;;
45358;SDS011;31096;49.292;8.710;2022-12-10T10:04:40;26.17;;;13.15;;
45358;SDS011;31096;49.292;8.710;2022-12-10T10:09:33;26.20;;;11.93;;
45358;SDS011;31096;49.292;8.710;2022-12-10T10:14:28;22.92;;;11.20;;
45358;SDS011;31096;49.292;8.710;2022-12-10T10:19:26;24.67;;;12.60;;
45358;SDS011;31096;49.292;8.710;2022-12-10T10:24:25;25.05;;;11.27;;
45358;SDS011;31096;49.292;8.710;2022-12-10T10:29:44;28.85;;;12.75;;
45358;SDS011;31096;49.292;8.710;2022-12-10T10:34:40;27.77;;;13.87;;
45358;SDS011;31096;49.292;8.710;2022-12-10T10:39:32;26.30;;;12.50;;
45358;SDS011;31096;49.292;8.710;2022-12-10T10:44:26;32.53;;;14.65;;
45358;SDS011;31096;49.292;8.710;2022-12-10T10:49:28;28.55;;;14.25;;
45358;SDS011;31096;49.292;8.710;2022-12-10T10:59:30;26.97;;;13.53;;
45358;SDS011;31096;49.292;8.710;2022-12-10T11:05:14;27.17;;;13.23;;
45358;SDS011;31096;49.292;8.710;2022-12-10T11:09:44;25.27;;;13.23;;
45358;SDS011;31096;49.292;8.710;2022-12-10T11:14:40;29.45;;;13.65;;
45358;SDS011;31096;49.292;8.710;2022-12-10T11:19:36;25.80;;;13.10;;
45358;SDS011;31096;49.292;8.710;2022-12-10T11:24:34;29.17;;;13.23;;
45358;SDS011;31096;49.292;8.710;2022-12-10T11:51:37;27.63;;;12.37;;
45358;SDS011;31096;49.292;8.710;2022-12-10T11:56:35;25.88;;;12.38;;
45358;SDS011;31096;49.292;8.710;2022-12-10T12:07:46;27.52;;;14.20;;
45358;SDS011;31096;49.292;8.710;2022-12-10T12:13:15;25.25;;;12.10;;
45358;SDS011;31096;49.292;8.710;2022-12-10T12:18:16;24.87;;;12.40;;
45358;SDS011;31096;49.292;8.710;2022-12-10T12:28:26;24.70;;;11.88;;
45358;SDS011;31096;49.292;8.710;2022-12-10T12:33:26;22.20;;;11.13;;
45358;SDS011;31096;49.292;8.710;2022-12-10T12:49:55;24.95;;;11.40;;
45358;SDS011;31096;49.292;8.710;2022-12-10T12:54:48;23.38;;;11.82;;
45358;SDS011;31096;49.292;8.710;2022-12-10T12:59:56;26.30;;;13.02;;
45358;SDS011;31096;49.292;8.710;2022-12-10T13:04:59;21.75;;;10.60;;
45358;SDS011;31096;49.292;8.710;2022-12-10T13:10:07;21.20;;;10.63;;
45358;SDS011;31096;49.292;8.710;2022-12-10T13:25:38;31.10;;;15.82;;
45358;SDS011;31096;49.292;8.710;2022-12-10T13:36:13;20.13;;;10.73;;
45358;SDS011;31096;49.292;8.710;2022-12-10T13:41:18;21.55;;;11.63;;
45358;SDS011;31096;49.292;8.710;2022-12-10T14:07:53;19.90;;;10.55;;
45358;SDS011;31096;49.292;8.710;2022-12-10T14:12:46;23.90;;;11.07;;
45358;SDS011;31096;49.292;8.710;2022-12-10T14:17:38;22.45;;;10.35;;
45358;SDS011;31096;49.292;8.710;2022-12-10T14:22:33;19.57;;;10.33;;
45358;SDS011;31096;49.292;8.710;2022-12-10T14:27:29;22.40;;;11.40;;
45358;SDS011;31096;49.292;8.710;2022-12-10T14:32:24;21.08;;;10.88;;
45358;SDS011;31096;49.292;8.710;2022-12-10T14:37:26;23.15;;;11.07;;
45358;SDS011;31096;49.292;8.710;2022-12-10T14:42:19;21.88;;;9.82;;
45358;SDS011;31096;49.292;8.710;2022-12-10T14:47:13;23.07;;;10.13;;
45358;SDS011;31096;49.292;8.710;2022-12-10T14:52:13;23.77;;;11.25;;
45358;SDS011;31096;49.292;8.710;2022-12-10T14:57:22;24.53;;;11.27;;
45358;SDS011;31096;49.292;8.710;2022-12-10T15:02:20;19.25;;;10.13;;
45358;SDS011;31096;49.292;8.710;2022-12-10T15:07:21;20.55;;;10.85;;
45358;SDS011;31096;49.292;8.710;2022-12-10T15:17:36;21.20;;;9.57;;
45358;SDS011;31096;49.292;8.710;2022-12-10T15:22:33;21.87;;;10.53;;
45358;SDS011;31096;49.292;8.710;2022-12-10T15:27:25;20.05;;;9.63;;
45358;SDS011;31096;49.292;8.710;2022-12-10T15:32:20;20.27;;;9.50;;
45358;SDS011;31096;49.292;8.710;2022-12-10T15:37:25;19.85;;;10.30;;
45358;SDS011;31096;49.292;8.710;2022-12-10T15:42:42;19.42;;;10.40;;
45358;SDS011;31096;49.292;8.710;2022-12-10T15:47:34;18.85;;;9.45;;
45358;SDS011;31096;49.292;8.710;2022-12-10T15:52:29;20.80;;;9.75;;
45358;SDS011;31096;49.292;8.710;2022-12-10T15:57:26;21.53;;;10.33;;
45358;SDS011;31096;49.292;8.710;2022-12-10T16:02:34;21.98;;;10.32;;
45358;SDS011;31096;49.292;8.710;2022-12-10T16:07:37;20.98;;;10.50;;
45358;SDS011;31096;49.292;8.710;2022-12-10T16:12:30;21.67;;;10.68;;
45358;SDS011;31096;49.292;8.710;2022-12-10T16:17:23;24.05;;;12.05;;
45358;SDS011;31096;49.292;8.710;2022-12-10T16:22:13;21.73;;;10.57;;
45358;SDS011;31096;49.292;8.710;2022-12-10T16:27:08;22.10;;;11.13;;
45358;SDS011;31096;49.292;8.710;2022-12-10T16:32:03;26.50;;;13.57;;
45358;SDS011;31096;49.292;8.710;2022-12-10T16:36:54;26.00;;;13.57;;
45358;SDS011;31096;49.292;8.710;2022-12-10T16:41:50;25.50;;;11.80;;
45358;SDS011;31096;49.292;8.710;2022-12-10T16:46:44;26.00;;;11.90;;
45358;SDS011;31096;49.292;8.710;2022-12-10T16:51:35;24.33;;;11.97;;
45358;SDS011;31096;49.292;8.710;2022-12-10T16:56:27;24.42;;;12.18;;
45358;SDS011;31096;49.292;8.710;2022-12-10T17:01:19;22.63;;;11.32;;
45358;SDS011;31096;49.292;8.710;2022-12-10T17:06:17;22.25;;;11.88;;
45358;SDS011;31096;49.292;8.710;2022-12-10T17:11:17;24.93;;;12.63;;
45358;SDS011;31096;49.292;8.710;2022-12-10T17:16:32;19.55;;;10.80;;
45358;SDS011;31096;49.292;8.710;2022-12-10T17:21:23;22.00;;;10.17;;
45358;SDS011;31096;49.292;8.710;2022-12-10T17:26:19;18.70;;;10.02;;
45358;SDS011;31096;49.292;8.710;2022-12-10T17:31:18;16.07;;;8.57;;
45358;SDS011;31096;49.292;8.710;2022-12-10T17:36:12;17.52;;;8.35;;
45358;SDS011;31096;49.292;8.710;2022-12-10T17:41:04;16.75;;;8.50;;
45358;SDS011;31096;49.292;8.710;2022-12-10T17:45:55;15.90;;;8.07;;
45358;SDS011;31096;49.292;8.710;2022-12-10T17:50:47;20.95;;;9.77;;
45358;SDS011;31096;49.292;8.710;2022-12-10T17:55:38;19.20;;;9.80;;
45358;SDS011;31096;49.292;8.710;2022-12-10T18:00:30;22.00;;;10.10;;
45358;SDS011;31096;49.292;8.710;2022-12-10T18:05:24;19.75;;;8.98;;
45358;SDS011;31096;49.292;8.710;2022-12-10T18:10:17;18.77;;;9.67;;
45358;SDS011;31096;49.292;8.710;2022-12-10T18:15:16;20.60;;;9.90;;
45358;SDS011;31096;49.292;8.710;2022-12-10T18:20:07;21.37;;;10.03;;
45358;SDS011;31096;49.292;8.710;2022-12-10T18:25:01;23.10;;;11.35;;
45358;SDS011;31096;49.292;8.710;2022-12-10T18:29:52;21.00;;;10.85;;
45358;SDS011;31096;49.292;8.710;2022-12-10T18:34:43;28.00;;;13.37;;
45358;SDS011;31096;49.292;8.710;2022-12-10T18:39:35;22.08;;;11.02;;
45358;SDS011;31096;49.292;8.710;2022-12-10T18:44:26;19.67;;;9.47;;
45358;SDS011;31096;49.292;8.710;2022-12-10T18:49:19;21.58;;;9.63;;
45358;SDS011;31096;49.292;8.710;2022-12-10T18:54:10;20.00;;;10.00;;
45358;SDS011;31096;49.292;8.710;2022-12-10T18:59:01;21.60;;;10.77;;
45358;SDS011;31096;49.292;8.710;2022-12-10T19:03:53;18.05;;;9.30;;
45358;SDS011;31096;49.292;8.710;2022-12-10T19:08:46;23.13;;;9.93;;
45358;SDS011;31096;49.292;8.710;2022-12-10T19:13:39;19.27;;;9.43;;
45358;SDS011;31096;49.292;8.710;2022-12-10T19:18:31;22.70;;;10.88;;
45358;SDS011;31096;49.292;8.710;2022-12-10T19:23:22;19.67;;;10.60;;
45358;SDS011;31096;49.292;8.710;2022-12-10T19:28:14;16.55;;;8.88;;
45358;SDS011;31096;49.292;8.710;2022-12-10T19:33:06;18.77;;;10.20;;
45358;SDS011;31096;49.292;8.710;2022-12-10T19:37:57;16.77;;;9.02;;
45358;SDS011;31096;49.292;8.710;2022-12-10T19:42:47;18.93;;;10.07;;
45358;SDS011;31096;49.292;8.710;2022-12-10T19:47:39;21.48;;;10.18;;
45358;SDS011;31096;49.292;8.710;2022-12-10T19:52:31;19.67;;;10.60;;
45358;SDS011;31096;49.292;8.710;2022-12-10T19:57:22;20.08;;;10.90;;
45358;SDS011;31096;49.292;8.710;2022-12-10T20:02:13;17.23;;;9.67;;
45358;SDS011;31096;49.292;8.710;2022-12-10T20:07:03;20.35;;;10.77;;
45358;SDS011;31096;49.292;8.710;2022-12-10T20:11:56;17.63;;;10.43;;
45358;SDS011;31096;49.292;8.710;2022-12-10T20:16:49;20.60;;;12.32;;
45358;SDS011;31096;49.292;8.710;2022-12-10T20:21:41;20.20;;;10.02;;
45358;SDS011;31096;49.292;8.710;2022-12-10T20:26:36;20.48;;;10.32;;
45358;SDS011;31096;49.292;8.710;2022-12-10T20:31:30;19.05;;;9.70;;
45358;SDS011;31096;49.292;8.710;2022-12-10T20:36:21;20.57;;;10.17;;
45358;SDS011;31096;49.292;8.710;2022-12-10T20:41:15;19.42;;;9.57;;
45358;SDS011;31096;49.292;8.710;2022-12-10T20:46:11;16.83;;;8.67;;
45358;SDS011;31096;49.292;8.710;2022-12-10T20:51:06;17.10;;;9.10;;
45358;SDS011;31096;49.292;8.710;2022-12-10T20:55:58;15.90;;;9.10;;
45358;SDS011;31096;49.292;8.710;2022-12-10T21:00:49;17.90;;;9.20;;
45358;SDS011;31096;49.292;8.710;2022-12-10T21:05:40;16.97;;;9.50;;
45358;SDS011;31096;49.292;8.710;2022-12-10T21:10:30;17.33;;;8.30;;
45358;SDS011;31096;49.292;8.710;2022-12-10T21:15:40;15.45;;;8.52;;
45358;SDS011;31096;49.292;8.710;2022-12-10T21:20:31;18.27;;;9.75;;
45358;SDS011;31096;49.292;8.710;2022-12-10T21:25:22;20.10;;;9.70;;
45358;SDS011;31096;49.292;8.710;2022-12-10T21:30:14;18.02;;;8.95;;
45358;SDS011;31096;49.292;8.710;2022-12-10T21:35:06;19.83;;;10.53;;
45358;SDS011;31096;49.292;8.710;2022-12-10T21:39:58;20.25;;;11.13;;
45358;SDS011;31096;49.292;8.710;2022-12-10T21:44:53;20.00;;;11.13;;
45358;SDS011;31096;49.292;8.710;2022-12-10T21:49:45;18.75;;;10.85;;
45358;SDS011;31096;49.292;8.710;2022-12-10T21:54:35;18.63;;;10.37;;
45358;SDS011;31096;49.292;8.710;2022-12-10T21:59:26;17.75;;;10.82;;
45358;SDS011;31096;49.292;8.710;2022-12-10T22:04:17;16.80;;;9.97;;
45358;SDS011;31096;49.292;8.710;2022-12-10T22:09:07;18.40;;;9.50;;
45358;SDS011;31096;49.292;8.710;2022-12-10T22:13:58;19.38;;;10.73;;
45358;SDS011;31096;49.292;8.710;2022-12-10T22:18:49;17.23;;;9.30;;
45358;SDS011;31096;49.292;8.710;2022-12-10T22:23:40;19.03;;;10.50;;
45358;SDS011;31096;49.292;8.710;2022-12-10T22:28:31;19.50;;;10.13;;
45358;SDS011;31096;49.292;8.710;2022-12-10T22:33:22;16.10;;;9.23;;
45358;SDS011;31096;49.292;8.710;2022-12-10T22:38:14;18.98;;;11.30;;
45358;SDS011;31096;49.292;8.710;2022-12-10T22:43:05;20.93;;;9.53;;
45358;SDS011;31096;49.292;8.710;2022-12-10T22:47:56;17.67;;;9.82;;
45358;SDS011;31096;49.292;8.710;2022-12-10T22:52:47;14.30;;;8.17;;
45358;SDS011;31096;49.292;8.710;2022-12-10T22:57:38;18.65;;;9.35;;
45358;SDS011;31096;49.292;8.710;2022-12-10T23:02:36;15.93;;;8.52;;
45358;SDS011;31096;49.292;8.710;2022-12-10T23:07:28;15.67;;;8.90;;
45358;SDS011;31096;49.292;8.710;2022-12-10T23:12:19;17.48;;;9.48;;
45358;SDS011;31096;49.292;8.710;2022-12-10T23:17:30;15.23;;;9.53;;
45358;SDS011;31096;49.292;8.710;2022-12-10T23:22:21;17.40;;;9.88;;
45358;SDS011;31096;49.292;8.710;2022-12-10T23:27:12;17.40;;;9.70;;
45358;SDS011;31096;49.292;8.710;2022-12-10T23:32:02;19.10;;;9.50;;
45358;SDS011;31096;49.292;8.710;2022-12-10T23:36:55;16.40;;;9.27;;
45358;SDS011;31096;49.292;8.710;2022-12-10T23:41:46;19.80;;;10.35;;
45358;SDS011;31096;49.292;8.710;2022-12-10T23:46:36;19.67;;;9.90;;
45358;SDS011;31096;49.292;8.710;2022-12-10T23:51:28;15.52;;;9.60;;
45358;SDS011;31096;49.292;8.710;2022-12-10T23:56:20;21.40;;;10.20;;
